Thursday, November 15, 2018, 9:08 AM CST
Back to Local

KMDW, Chicago Midway Airport

Location: Chicago, IL, United States Lat: 41.783
Local Time: 9:08 AM CST (15:08 GMT) Lon: -87.75
Time Zone: US/Central Elev: 620 ft

Show me the last for .
Show Decoded

2018-11-15 08:51 METAR KMDW 151451Z 13004KT 1/2SM R31C/3000V4500FT SN FG FEW007 SCT019 OVC026
                 00/M02 A3010 RMK AO2 P0002 =
2018-11-15 08:36 METAR KMDW 151436Z COR 09006KT 1 1/2SM -SN BR FEW007 SCT019 OVC026 00/M02 A3011
                 RMK AO2 P0000 T00001022 =
2018-11-15 08:25 METAR KMDW 151425Z 05006KT 3SM -SN BR SCT019 OVC028 00/M02 A3010 RMK AO2 P0000
                 T00001022 =
2018-11-15 08:08 METAR KMDW 151408Z 06006KT 1SM R31C/5000VP6000FT -SN BR VV019 00/M02 A3011 RMK
                 AO2 P0000 T00001022 =
2018-11-15 07:59 METAR KMDW 151359Z 05007KT 3/4SM R31C/5000VP6000FT -SN BR OVC021 00/M03 A3012
                 RMK AO2 P0000 T00001028 =
2018-11-15 07:53 METAR KMDW 151353Z 05010KT 1 1/4SM -SN BR OVC021 00/M03 A3011 RMK AO2 SNB19
                 SLP210 P0000 T00001033 =
2018-11-15 07:43 METAR KMDW 151343Z 09006KT 1 3/4SM -SN BR OVC021 01/M04 A3013 RMK AO2 SNB19
                 P0000 T00061044 =
2018-11-15 07:23 METAR KMDW 151323Z 10007KT 9SM -SN BKN021 BKN039 OVC090 01/M06 A3015 RMK AO2
                 SNB19 P0000 T00061061 =
2018-11-15 06:53 METAR KMDW 151253Z 08004KT 9SM FEW023 SCT060 OVC080 00/M07 A3014 RMK AO2 SLP219
                 T00001067 =
2018-11-15 05:53 METAR KMDW 151153Z 05003KT 9SM BKN085 OVC120 M01/M07 A3018 RMK AO2 SLP230
                 T10061067 10000 21011 56016 =
2018-11-15 04:53 METAR KMDW 151053Z 14004KT 9SM BKN095 OVC120 M01/M07 A3019 RMK AO2 SLP236
                 T10061067 =
2018-11-15 03:53 METAR KMDW 150953Z 11007KT 10SM BKN120 OVC160 00/M06 A3021 RMK AO2 SLP240
                 T00001061 =
2018-11-15 02:53 METAR KMDW 150853Z 10008KT 10SM SCT130 OVC190 00/M06 A3022 RMK AO2 SLP246
                 T00001061 58033 =
2018-11-15 01:53 METAR KMDW 150753Z 09007KT 9SM OVC220 00/M06 A3026 RMK AO2 SLP257 T00001056 =
2018-11-15 00:53 METAR KMDW 150653Z 14006KT 9SM OVC220 M01/M06 A3030 RMK AO2 SLP273 T10111061 =
2018-11-14 23:53 METAR KMDW 150553Z 00000KT 10SM FEW024 BKN250 M01/M06 A3032 RMK AO2 SLP279
                 T10111056 10006 21017 400221072 58028 =
2018-11-14 22:53 METAR KMDW 150453Z 14005KT 10SM FEW024 M01/M06 A3035 RMK AO2 SLP290 T10111056 =
2018-11-14 21:53 METAR KMDW 150353Z 14004KT 10SM FEW024 M01/M05 A3038 RMK AO2 SLP301 T10061050 =
2018-11-14 21:04 METAR KMDW 150304Z 15003KT 10SM SCT024 00/M04 A3041 RMK AO2 T00001044 =
2018-11-14 20:53 METAR KMDW 150253Z 15005KT 10SM BKN023 00/M04 A3041 RMK AO2 SLP310 T00001044
                 58015 =
2018-11-14 20:44 METAR KMDW 150244Z 09004KT 10SM BKN023 00/M04 A3040 RMK AO2 T00001044 =
2018-11-14 19:53 METAR KMDW 150153Z 12004KT 10SM FEW025 M01/M05 A3043 RMK AO2 SLP318 T10111050 =
2018-11-14 18:53 METAR KMDW 150053Z 05006KT 10SM FEW025 M01/M06 A3044 RMK AO2 SLP324 T10061056 =
2018-11-14 17:53 METAR KMDW 142353Z 07006KT 10SM FEW025 00/M06 A3045 RMK AO2 SLP327 T00001056
                 10022 21006 58011 =
2018-11-14 16:53 METAR KMDW 142253Z 08006KT 10SM FEW025 FEW250 00/M06 A3047 RMK AO2 SLP332
                 T00001056 =
2018-11-14 15:53 METAR KMDW 142153Z 06007KT 10SM FEW025 FEW150 FEW250 01/M06 A3047 RMK AO2 SLP335
                 T00061061 =
2018-11-14 14:53 METAR KMDW 142053Z 10004KT 10SM FEW025 FEW150 01/M06 A3048 RMK AO2 SLP338
                 T00111061 56031 =
2018-11-14 13:53 METAR KMDW 141953Z 08006KT 10SM FEW025 FEW150 02/M06 A3049 RMK AO2 SLP340
                 T00171061 =
2018-11-14 12:53 METAR KMDW 141853Z 03005KT 10SM FEW025 01/M07 A3054 RMK AO2 SLP356 T00061072 =
2018-11-14 12:16 METAR KMDW 141816Z 00000KT 10SM FEW025 01/M07 A3055 RMK AO2 T00061072 =
2018-11-14 11:53 METAR KMDW 141753Z 01004KT 10SM BKN024 01/M07 A3058 RMK AO2 SLP369 T00061072
                 10011 21072 58002 =
2018-11-14 10:53 METAR KMDW 141653Z 00000KT 10SM BKN022 M02/M09 A3060 RMK AO2 SLP377 T10171089 =
2018-11-14 10:18 METAR KMDW 141618Z 25004KT 10SM BKN022 M02/M10 A3060 RMK AO2 T10221100 =
2018-11-14 09:53 METAR KMDW 141553Z 32005KT 10SM FEW028 M02/M11 A3059 RMK AO2 SLP373 T10221106 =

Support USWX by starting your Amazon purchase here.